sensor_id;sensor_type;location;lat;lon;timestamp;temperature;humidity
73360;DHT22;63092;43.582;19.528;2023-02-10T00:01:24;-3.40;90.40
73360;DHT22;63092;43.582;19.528;2023-02-10T00:03:50;-3.40;90.30
73360;DHT22;63092;43.582;19.528;2023-02-10T00:06:16;-3.40;90.40
73360;DHT22;63092;43.582;19.528;2023-02-10T00:08:46;-3.40;90.20
73360;DHT22;63092;43.582;19.528;2023-02-10T00:11:12;-3.50;90.10
73360;DHT22;63092;43.582;19.528;2023-02-10T00:13:39;-3.40;90.10
73360;DHT22;63092;43.582;19.528;2023-02-10T00:16:07;-3.40;89.40
73360;DHT22;63092;43.582;19.528;2023-02-10T00:18:33;-3.40;89.50
73360;DHT22;63092;43.582;19.528;2023-02-10T00:21:07;-3.60;90.10
73360;DHT22;63092;43.582;19.528;2023-02-10T00:23:33;-3.60;89.60
73360;DHT22;63092;43.582;19.528;2023-02-10T00:26:02;-3.70;90.30
73360;DHT22;63092;43.582;19.528;2023-02-10T00:28:28;-3.90;91.00
73360;DHT22;63092;43.582;19.528;2023-02-10T00:30:54;-3.80;91.40
73360;DHT22;63092;43.582;19.528;2023-02-10T00:33:20;-3.80;91.20
73360;DHT22;63092;43.582;19.528;2023-02-10T00:35:45;-3.80;90.90
73360;DHT22;63092;43.582;19.528;2023-02-10T00:38:11;-3.80;90.80
73360;DHT22;63092;43.582;19.528;2023-02-10T00:40:37;-3.70;90.60
73360;DHT22;63092;43.582;19.528;2023-02-10T00:43:02;-3.80;90.70
73360;DHT22;63092;43.582;19.528;2023-02-10T00:45:28;-3.80;90.70
73360;DHT22;63092;43.582;19.528;2023-02-10T00:47:53;-3.90;90.50
73360;DHT22;63092;43.582;19.528;2023-02-10T00:50:19;-3.90;90.70
73360;DHT22;63092;43.582;19.528;2023-02-10T00:52:45;-3.90;90.40
73360;DHT22;63092;43.582;19.528;2023-02-10T00:55:10;-4.00;90.70
73360;DHT22;63092;43.582;19.528;2023-02-10T00:57:36;-3.90;90.80
73360;DHT22;63092;43.582;19.528;2023-02-10T01:00:03;-4.00;90.60
73360;DHT22;63092;43.582;19.528;2023-02-10T01:02:28;-4.00;90.90
73360;DHT22;63092;43.582;19.528;2023-02-10T01:04:54;-4.00;91.10
73360;DHT22;63092;43.582;19.528;2023-02-10T01:07:20;-4.00;91.20
73360;DHT22;63092;43.582;19.528;2023-02-10T01:09:45;-4.00;91.40
73360;DHT22;63092;43.582;19.528;2023-02-10T01:12:11;-4.00;91.30
73360;DHT22;63092;43.582;19.528;2023-02-10T01:14:37;-4.10;90.90
73360;DHT22;63092;43.582;19.528;2023-02-10T01:17:02;-4.00;90.60
73360;DHT22;63092;43.582;19.528;2023-02-10T01:19:28;-4.00;90.20
73360;DHT22;63092;43.582;19.528;2023-02-10T01:21:54;-4.00;90.30
73360;DHT22;63092;43.582;19.528;2023-02-10T01:24:20;-4.00;90.20
73360;DHT22;63092;43.582;19.528;2023-02-10T01:26:45;-4.20;90.90
73360;DHT22;63092;43.582;19.528;2023-02-10T01:29:11;-4.20;90.90
73360;DHT22;63092;43.582;19.528;2023-02-10T01:31:36;-4.20;90.60
73360;DHT22;63092;43.582;19.528;2023-02-10T01:34:02;-4.30;90.80
73360;DHT22;63092;43.582;19.528;2023-02-10T01:36:28;-4.30;90.80
73360;DHT22;63092;43.582;19.528;2023-02-10T01:38:53;-4.30;90.50
73360;DHT22;63092;43.582;19.528;2023-02-10T01:41:22;-4.30;90.40
73360;DHT22;63092;43.582;19.528;2023-02-10T01:45:06;-4.30;90.10
73360;DHT22;63092;43.582;19.528;2023-02-10T01:46:37;-4.40;90.10
73360;DHT22;63092;43.582;19.528;2023-02-10T01:49:10;-4.50;90.70
73360;DHT22;63092;43.582;19.528;2023-02-10T01:54:12;-4.50;91.00
73360;DHT22;63092;43.582;19.528;2023-02-10T01:56:39;-4.60;91.80
73360;DHT22;63092;43.582;19.528;2023-02-10T01:59:06;-4.50;91.80
73360;DHT22;63092;43.582;19.528;2023-02-10T02:01:32;-4.50;91.60
73360;DHT22;63092;43.582;19.528;2023-02-10T02:03:58;-4.50;91.40
73360;DHT22;63092;43.582;19.528;2023-02-10T02:06:25;-4.40;91.20
73360;DHT22;63092;43.582;19.528;2023-02-10T02:08:51;-4.50;91.10
73360;DHT22;63092;43.582;19.528;2023-02-10T02:17:03;-4.60;91.00
73360;DHT22;63092;43.582;19.528;2023-02-10T02:20:08;-4.60;91.30
73360;DHT22;63092;43.582;19.528;2023-02-10T02:33:43;-4.80;91.70
73360;DHT22;63092;43.582;19.528;2023-02-10T02:36:46;-4.70;91.20
73360;DHT22;63092;43.582;19.528;2023-02-10T02:39:14;-4.60;90.40
73360;DHT22;63092;43.582;19.528;2023-02-10T02:41:40;-4.60;90.40
73360;DHT22;63092;43.582;19.528;2023-02-10T02:44:06;-4.60;90.30
73360;DHT22;63092;43.582;19.528;2023-02-10T02:49:38;-4.60;89.40
73360;DHT22;63092;43.582;19.528;2023-02-10T02:52:14;-4.60;89.10
73360;DHT22;63092;43.582;19.528;2023-02-10T02:55:05;-4.60;89.20
73360;DHT22;63092;43.582;19.528;2023-02-10T02:57:45;-4.70;88.90
73360;DHT22;63092;43.582;19.528;2023-02-10T03:00:37;-4.70;89.10
73360;DHT22;63092;43.582;19.528;2023-02-10T03:03:04;-4.70;89.00
73360;DHT22;63092;43.582;19.528;2023-02-10T03:05:32;-4.80;88.80
73360;DHT22;63092;43.582;19.528;2023-02-10T03:07:58;-4.80;88.80
73360;DHT22;63092;43.582;19.528;2023-02-10T03:10:23;-4.80;88.10
73360;DHT22;63092;43.582;19.528;2023-02-10T03:12:49;-4.90;88.20
73360;DHT22;63092;43.582;19.528;2023-02-10T03:15:16;-4.90;89.20
73360;DHT22;63092;43.582;19.528;2023-02-10T03:17:42;-4.90;89.20
73360;DHT22;63092;43.582;19.528;2023-02-10T03:20:08;-5.00;89.50
73360;DHT22;63092;43.582;19.528;2023-02-10T03:22:34;-5.00;89.90
73360;DHT22;63092;43.582;19.528;2023-02-10T03:25:00;-4.90;88.50
73360;DHT22;63092;43.582;19.528;2023-02-10T03:27:26;-5.00;88.60
73360;DHT22;63092;43.582;19.528;2023-02-10T03:29:51;-4.90;88.80
73360;DHT22;63092;43.582;19.528;2023-02-10T03:32:18;-5.00;88.00
73360;DHT22;63092;43.582;19.528;2023-02-10T03:34:44;-5.00;87.50
73360;DHT22;63092;43.582;19.528;2023-02-10T03:37:10;-5.10;87.80
73360;DHT22;63092;43.582;19.528;2023-02-10T03:39:36;-5.10;88.80
73360;DHT22;63092;43.582;19.528;2023-02-10T03:42:02;-5.10;89.10
73360;DHT22;63092;43.582;19.528;2023-02-10T03:44:28;-5.20;88.40
73360;DHT22;63092;43.582;19.528;2023-02-10T03:46:54;-5.20;89.30
73360;DHT22;63092;43.582;19.528;2023-02-10T03:49:20;-5.20;89.40
73360;DHT22;63092;43.582;19.528;2023-02-10T03:51:46;-5.30;90.20
73360;DHT22;63092;43.582;19.528;2023-02-10T03:54:12;-5.20;90.10
73360;DHT22;63092;43.582;19.528;2023-02-10T03:56:37;-5.20;90.10
73360;DHT22;63092;43.582;19.528;2023-02-10T03:59:04;-5.20;90.10
73360;DHT22;63092;43.582;19.528;2023-02-10T04:01:30;-5.20;89.40
73360;DHT22;63092;43.582;19.528;2023-02-10T04:03:56;-5.10;88.80
73360;DHT22;63092;43.582;19.528;2023-02-10T04:06:22;-5.10;88.30
73360;DHT22;63092;43.582;19.528;2023-02-10T04:08:48;-5.20;88.60
73360;DHT22;63092;43.582;19.528;2023-02-10T04:11:14;-5.20;88.90
73360;DHT22;63092;43.582;19.528;2023-02-10T04:13:40;-5.20;88.40
73360;DHT22;63092;43.582;19.528;2023-02-10T04:16:07;-5.20;88.90
73360;DHT22;63092;43.582;19.528;2023-02-10T04:18:33;-5.30;88.90
73360;DHT22;63092;43.582;19.528;2023-02-10T04:21:01;-5.40;88.60
73360;DHT22;63092;43.582;19.528;2023-02-10T04:23:27;-5.30;88.70
73360;DHT22;63092;43.582;19.528;2023-02-10T04:25:53;-5.30;88.60
73360;DHT22;63092;43.582;19.528;2023-02-10T04:28:19;-5.30;87.70
73360;DHT22;63092;43.582;19.528;2023-02-10T04:30:45;-5.40;88.30
73360;DHT22;63092;43.582;19.528;2023-02-10T04:33:11;-5.30;89.60
73360;DHT22;63092;43.582;19.528;2023-02-10T04:35:36;-5.40;89.50
73360;DHT22;63092;43.582;19.528;2023-02-10T04:38:02;-5.40;89.10
73360;DHT22;63092;43.582;19.528;2023-02-10T04:40:31;-5.40;89.00
73360;DHT22;63092;43.582;19.528;2023-02-10T04:42:57;-5.40;89.20
73360;DHT22;63092;43.582;19.528;2023-02-10T04:45:22;-5.40;89.10
73360;DHT22;63092;43.582;19.528;2023-02-10T04:47:48;-5.40;88.70
73360;DHT22;63092;43.582;19.528;2023-02-10T04:50:14;-5.50;88.40
73360;DHT22;63092;43.582;19.528;2023-02-10T04:52:39;-5.50;88.40
73360;DHT22;63092;43.582;19.528;2023-02-10T04:55:05;-5.50;88.40
73360;DHT22;63092;43.582;19.528;2023-02-10T04:57:31;-5.50;88.00
73360;DHT22;63092;43.582;19.528;2023-02-10T04:59:56;-5.60;87.90
73360;DHT22;63092;43.582;19.528;2023-02-10T05:02:22;-5.60;87.10
73360;DHT22;63092;43.582;19.528;2023-02-10T05:04:48;-5.70;87.60
73360;DHT22;63092;43.582;19.528;2023-02-10T05:07:13;-5.70;88.00
73360;DHT22;63092;43.582;19.528;2023-02-10T05:09:39;-5.70;88.10
73360;DHT22;63092;43.582;19.528;2023-02-10T05:12:05;-5.80;88.70
73360;DHT22;63092;43.582;19.528;2023-02-10T05:14:30;-5.90;89.40
73360;DHT22;63092;43.582;19.528;2023-02-10T05:16:56;-5.80;90.10
73360;DHT22;63092;43.582;19.528;2023-02-10T05:19:22;-5.80;89.60
73360;DHT22;63092;43.582;19.528;2023-02-10T05:21:47;-5.70;89.60
73360;DHT22;63092;43.582;19.528;2023-02-10T05:24:14;-5.70;89.20
73360;DHT22;63092;43.582;19.528;2023-02-10T05:26:39;-5.70;89.10
73360;DHT22;63092;43.582;19.528;2023-02-10T05:29:05;-5.70;89.20
73360;DHT22;63092;43.582;19.528;2023-02-10T05:31:31;-5.70;89.10
73360;DHT22;63092;43.582;19.528;2023-02-10T05:33:56;-5.70;89.00
73360;DHT22;63092;43.582;19.528;2023-02-10T05:36:22;-5.80;89.30
73360;DHT22;63092;43.582;19.528;2023-02-10T05:38:47;-5.80;89.50
73360;DHT22;63092;43.582;19.528;2023-02-10T05:41:32;-5.80;90.10
73360;DHT22;63092;43.582;19.528;2023-02-10T05:43:57;-5.80;90.00
73360;DHT22;63092;43.582;19.528;2023-02-10T05:46:23;-5.70;89.90
73360;DHT22;63092;43.582;19.528;2023-02-10T05:48:49;-5.80;89.00
73360;DHT22;63092;43.582;19.528;2023-02-10T05:51:15;-5.70;88.00
73360;DHT22;63092;43.582;19.528;2023-02-10T05:53:40;-5.80;87.90
73360;DHT22;63092;43.582;19.528;2023-02-10T05:56:06;-5.70;87.10
73360;DHT22;63092;43.582;19.528;2023-02-10T05:58:31;-5.70;86.80
73360;DHT22;63092;43.582;19.528;2023-02-10T06:01:00;-5.80;86.60
73360;DHT22;63092;43.582;19.528;2023-02-10T06:03:26;-5.80;86.20
73360;DHT22;63092;43.582;19.528;2023-02-10T06:05:52;-5.80;85.80
73360;DHT22;63092;43.582;19.528;2023-02-10T06:08:17;-5.80;85.70
73360;DHT22;63092;43.582;19.528;2023-02-10T06:10:43;-5.80;86.10
73360;DHT22;63092;43.582;19.528;2023-02-10T06:13:09;-5.80;86.00
73360;DHT22;63092;43.582;19.528;2023-02-10T06:15:35;-5.70;85.30
73360;DHT22;63092;43.582;19.528;2023-02-10T06:18:00;-5.70;84.90
73360;DHT22;63092;43.582;19.528;2023-02-10T06:20:26;-5.70;85.40
73360;DHT22;63092;43.582;19.528;2023-02-10T06:22:52;-5.70;85.50
73360;DHT22;63092;43.582;19.528;2023-02-10T06:25:17;-5.80;86.00
73360;DHT22;63092;43.582;19.528;2023-02-10T06:27:43;-5.70;85.30
73360;DHT22;63092;43.582;19.528;2023-02-10T06:30:09;-5.70;85.10
73360;DHT22;63092;43.582;19.528;2023-02-10T06:32:35;-5.90;86.20
73360;DHT22;63092;43.582;19.528;2023-02-10T06:35:01;-5.80;87.60
73360;DHT22;63092;43.582;19.528;2023-02-10T06:37:26;-5.80;87.50
73360;DHT22;63092;43.582;19.528;2023-02-10T06:39:52;-5.80;88.00
73360;DHT22;63092;43.582;19.528;2023-02-10T06:42:18;-5.80;87.40
73360;DHT22;63092;43.582;19.528;2023-02-10T06:44:44;-5.70;87.50
73360;DHT22;63092;43.582;19.528;2023-02-10T06:47:09;-5.60;87.60
73360;DHT22;63092;43.582;19.528;2023-02-10T06:49:35;-5.60;87.30
73360;DHT22;63092;43.582;19.528;2023-02-10T06:52:01;-5.60;86.60
73360;DHT22;63092;43.582;19.528;2023-02-10T06:54:27;-5.60;86.40
73360;DHT22;63092;43.582;19.528;2023-02-10T06:56:53;-5.60;86.90
73360;DHT22;63092;43.582;19.528;2023-02-10T06:59:19;-5.70;87.00
73360;DHT22;63092;43.582;19.528;2023-02-10T07:01:46;-5.60;87.30
73360;DHT22;63092;43.582;19.528;2023-02-10T07:04:11;-5.60;87.40
73360;DHT22;63092;43.582;19.528;2023-02-10T07:06:38;-5.80;87.10
73360;DHT22;63092;43.582;19.528;2023-02-10T07:09:04;-6.00;90.00
73360;DHT22;63092;43.582;19.528;2023-02-10T07:11:30;-5.90;90.30
73360;DHT22;63092;43.582;19.528;2023-02-10T07:13:56;-5.80;89.60
73360;DHT22;63092;43.582;19.528;2023-02-10T07:16:22;-5.50;89.00
73360;DHT22;63092;43.582;19.528;2023-02-10T07:18:48;-5.50;87.90
73360;DHT22;63092;43.582;19.528;2023-02-10T07:21:14;-5.30;88.10
73360;DHT22;63092;43.582;19.528;2023-02-10T07:23:40;-5.10;87.20
73360;DHT22;63092;43.582;19.528;2023-02-10T07:26:05;-4.90;86.00
73360;DHT22;63092;43.582;19.528;2023-02-10T07:28:32;-4.70;85.50
73360;DHT22;63092;43.582;19.528;2023-02-10T07:30:58;-4.90;86.00
73360;DHT22;63092;43.582;19.528;2023-02-10T07:33:23;-4.90;86.10
73360;DHT22;63092;43.582;19.528;2023-02-10T07:35:49;-5.20;89.30
73360;DHT22;63092;43.582;19.528;2023-02-10T07:38:15;-4.90;89.10
73360;DHT22;63092;43.582;19.528;2023-02-10T07:40:41;-4.70;88.10
73360;DHT22;63092;43.582;19.528;2023-02-10T07:43:06;-4.60;87.80
73360;DHT22;63092;43.582;19.528;2023-02-10T07:45:32;-4.40;85.70
73360;DHT22;63092;43.582;19.528;2023-02-10T07:47:58;-4.30;83.70
73360;DHT22;63092;43.582;19.528;2023-02-10T07:50:24;-4.10;84.20
73360;DHT22;63092;43.582;19.528;2023-02-10T07:52:50;-4.00;82.60
73360;DHT22;63092;43.582;19.528;2023-02-10T07:55:16;-3.80;82.50
73360;DHT22;63092;43.582;19.528;2023-02-10T07:57:42;-3.50;81.10
73360;DHT22;63092;43.582;19.528;2023-02-10T08:00:09;-3.50;78.70
73360;DHT22;63092;43.582;19.528;2023-02-10T08:02:34;-3.80;78.10
73360;DHT22;63092;43.582;19.528;2023-02-10T08:05:00;-3.60;78.10
73360;DHT22;63092;43.582;19.528;2023-02-10T08:07:26;-3.60;78.70
73360;DHT22;63092;43.582;19.528;2023-02-10T08:09:52;-3.60;78.20
73360;DHT22;63092;43.582;19.528;2023-02-10T08:12:17;-3.60;77.90
73360;DHT22;63092;43.582;19.528;2023-02-10T08:14:43;-3.40;77.60
73360;DHT22;63092;43.582;19.528;2023-02-10T08:17:09;-4.00;77.60
73360;DHT22;63092;43.582;19.528;2023-02-10T08:19:34;-3.50;77.80
73360;DHT22;63092;43.582;19.528;2023-02-10T08:22:03;-3.40;78.70
73360;DHT22;63092;43.582;19.528;2023-02-10T08:24:30;-3.20;78.30
73360;DHT22;63092;43.582;19.528;2023-02-10T08:26:56;-3.30;77.70
73360;DHT22;63092;43.582;19.528;2023-02-10T08:29:22;-3.30;78.40
73360;DHT22;63092;43.582;19.528;2023-02-10T08:31:51;-3.20;79.60
73360;DHT22;63092;43.582;19.528;2023-02-10T08:34:19;-3.20;78.90
73360;DHT22;63092;43.582;19.528;2023-02-10T08:36:45;-3.00;78.90
73360;DHT22;63092;43.582;19.528;2023-02-10T08:39:12;-3.10;76.40
73360;DHT22;63092;43.582;19.528;2023-02-10T08:41:38;-3.00;76.30
73360;DHT22;63092;43.582;19.528;2023-02-10T08:44:04;-2.80;76.50
73360;DHT22;63092;43.582;19.528;2023-02-10T08:46:30;-3.10;77.00
73360;DHT22;63092;43.582;19.528;2023-02-10T08:48:56;-3.00;76.10
73360;DHT22;63092;43.582;19.528;2023-02-10T08:51:22;-3.10;77.40
73360;DHT22;63092;43.582;19.528;2023-02-10T08:53:48;-3.10;78.10
73360;DHT22;63092;43.582;19.528;2023-02-10T08:56:16;-2.80;78.30
73360;DHT22;63092;43.582;19.528;2023-02-10T08:58:42;-2.80;76.60
73360;DHT22;63092;43.582;19.528;2023-02-10T09:01:12;-2.70;77.80
73360;DHT22;63092;43.582;19.528;2023-02-10T09:03:39;-2.60;78.20
73360;DHT22;63092;43.582;19.528;2023-02-10T09:06:05;-2.60;77.10
73360;DHT22;63092;43.582;19.528;2023-02-10T09:08:31;-2.70;78.20
73360;DHT22;63092;43.582;19.528;2023-02-10T09:10:56;-2.80;77.70
73360;DHT22;63092;43.582;19.528;2023-02-10T09:13:23;-2.60;77.20
73360;DHT22;63092;43.582;19.528;2023-02-10T09:15:49;-2.40;76.30
73360;DHT22;63092;43.582;19.528;2023-02-10T09:18:14;-2.30;77.00
73360;DHT22;63092;43.582;19.528;2023-02-10T09:20:40;-2.10;75.90
73360;DHT22;63092;43.582;19.528;2023-02-10T09:23:06;-2.40;76.50
73360;DHT22;63092;43.582;19.528;2023-02-10T09:25:31;-2.30;76.20
73360;DHT22;63092;43.582;19.528;2023-02-10T09:27:57;-2.30;76.20
73360;DHT22;63092;43.582;19.528;2023-02-10T09:30:24;-2.30;76.80
73360;DHT22;63092;43.582;19.528;2023-02-10T09:32:50;-2.40;77.80
73360;DHT22;63092;43.582;19.528;2023-02-10T09:35:16;-2.00;77.50
73360;DHT22;63092;43.582;19.528;2023-02-10T09:37:42;-1.70;76.10
73360;DHT22;63092;43.582;19.528;2023-02-10T09:40:13;-1.80;75.80
73360;DHT22;63092;43.582;19.528;2023-02-10T09:43:12;-1.40;74.80
73360;DHT22;63092;43.582;19.528;2023-02-10T09:45:40;-1.20;73.70
73360;DHT22;63092;43.582;19.528;2023-02-10T09:53:25;-1.50;73.40
73360;DHT22;63092;43.582;19.528;2023-02-10T09:56:01;-1.20;74.40
73360;DHT22;63092;43.582;19.528;2023-02-10T10:03:42;-1.00;73.60
73360;DHT22;63092;43.582;19.528;2023-02-10T10:06:21;-0.90;73.60
73360;DHT22;63092;43.582;19.528;2023-02-10T10:14:26;-1.00;73.50
73360;DHT22;63092;43.582;19.528;2023-02-10T10:17:10;-1.20;74.00
73360;DHT22;63092;43.582;19.528;2023-02-10T10:36:38;-0.80;76.30
73360;DHT22;63092;43.582;19.528;2023-02-10T10:39:31;-0.70;75.30
73360;DHT22;63092;43.582;19.528;2023-02-10T10:42:02;-0.80;74.10
73360;DHT22;63092;43.582;19.528;2023-02-10T10:44:31;-0.90;74.70
73360;DHT22;63092;43.582;19.528;2023-02-10T10:47:29;-0.60;74.80
73360;DHT22;63092;43.582;19.528;2023-02-10T10:49:56;-0.50;74.40
73360;DHT22;63092;43.582;19.528;2023-02-10T10:54:49;-0.40;74.70
73360;DHT22;63092;43.582;19.528;2023-02-10T10:57:16;-0.30;73.70
73360;DHT22;63092;43.582;19.528;2023-02-10T11:00:25;-0.30;73.30
73360;DHT22;63092;43.582;19.528;2023-02-10T11:03:03;-0.20;74.00
73360;DHT22;63092;43.582;19.528;2023-02-10T11:05:35;0.00;73.70
73360;DHT22;63092;43.582;19.528;2023-02-10T11:08:04;0.10;72.70
73360;DHT22;63092;43.582;19.528;2023-02-10T11:10:38;-0.10;72.70
73360;DHT22;63092;43.582;19.528;2023-02-10T11:13:26;0.20;73.40
73360;DHT22;63092;43.582;19.528;2023-02-10T11:16:06;0.10;72.50
73360;DHT22;63092;43.582;19.528;2023-02-10T11:18:33;0.30;72.20
73360;DHT22;63092;43.582;19.528;2023-02-10T11:21:02;0.40;72.10
73360;DHT22;63092;43.582;19.528;2023-02-10T11:23:29;0.10;71.60
73360;DHT22;63092;43.582;19.528;2023-02-10T11:26:03;0.20;72.50
73360;DHT22;63092;43.582;19.528;2023-02-10T11:28:31;0.20;72.00
73360;DHT22;63092;43.582;19.528;2023-02-10T11:31:01;0.30;72.90
73360;DHT22;63092;43.582;19.528;2023-02-10T11:33:30;0.30;72.10
73360;DHT22;63092;43.582;19.528;2023-02-10T11:36:07;0.30;72.80
73360;DHT22;63092;43.582;19.528;2023-02-10T11:38:34;0.50;71.30
73360;DHT22;63092;43.582;19.528;2023-02-10T11:41:02;0.60;71.60
73360;DHT22;63092;43.582;19.528;2023-02-10T11:43:46;0.70;70.40
73360;DHT22;63092;43.582;19.528;2023-02-10T11:46:27;0.90;70.50
73360;DHT22;63092;43.582;19.528;2023-02-10T11:48:58;1.10;69.80
73360;DHT22;63092;43.582;19.528;2023-02-10T11:51:25;1.00;69.60
73360;DHT22;63092;43.582;19.528;2023-02-10T11:53:52;1.00;69.80
73360;DHT22;63092;43.582;19.528;2023-02-10T11:56:23;1.00;69.90
73360;DHT22;63092;43.582;19.528;2023-02-10T11:59:32;1.10;69.80
73360;DHT22;63092;43.582;19.528;2023-02-10T12:07:34;1.10;70.00
73360;DHT22;63092;43.582;19.528;2023-02-10T12:15:56;1.30;70.30
73360;DHT22;63092;43.582;19.528;2023-02-10T12:18:38;1.50;69.50
73360;DHT22;63092;43.582;19.528;2023-02-10T12:44:34;2.10;67.80
73360;DHT22;63092;43.582;19.528;2023-02-10T12:50:05;2.10;67.40
73360;DHT22;63092;43.582;19.528;2023-02-10T12:52:43;2.20;68.20
73360;DHT22;63092;43.582;19.528;2023-02-10T13:00:30;2.60;66.00
73360;DHT22;63092;43.582;19.528;2023-02-10T13:03:03;2.60;65.90
73360;DHT22;63092;43.582;19.528;2023-02-10T13:06:00;2.50;66.10
73360;DHT22;63092;43.582;19.528;2023-02-10T13:08:32;2.70;66.20
73360;DHT22;63092;43.582;19.528;2023-02-10T13:11:07;2.70;66.20
73360;DHT22;63092;43.582;19.528;2023-02-10T13:13:36;2.80;66.20
73360;DHT22;63092;43.582;19.528;2023-02-10T13:16:07;2.90;66.60
73360;DHT22;63092;43.582;19.528;2023-02-10T13:19:30;3.00;66.30
73360;DHT22;63092;43.582;19.528;2023-02-10T13:21:56;3.00;65.90
73360;DHT22;63092;43.582;19.528;2023-02-10T13:24:40;2.90;64.30
73360;DHT22;63092;43.582;19.528;2023-02-10T13:27:31;3.00;64.80
73360;DHT22;63092;43.582;19.528;2023-02-10T13:33:13;3.10;66.00
73360;DHT22;63092;43.582;19.528;2023-02-10T13:35:42;3.10;65.30
73360;DHT22;63092;43.582;19.528;2023-02-10T13:38:14;3.20;66.00
73360;DHT22;63092;43.582;19.528;2023-02-10T13:43:31;3.30;65.00
73360;DHT22;63092;43.582;19.528;2023-02-10T13:46:00;3.30;65.00
73360;DHT22;63092;43.582;19.528;2023-02-10T13:48:36;3.40;64.60
73360;DHT22;63092;43.582;19.528;2023-02-10T13:51:07;3.30;65.80
73360;DHT22;63092;43.582;19.528;2023-02-10T13:59:01;3.40;65.10
73360;DHT22;63092;43.582;19.528;2023-02-10T14:01:49;3.30;65.80
73360;DHT22;63092;43.582;19.528;2023-02-10T14:06:49;3.20;66.40
73360;DHT22;63092;43.582;19.528;2023-02-10T14:11:57;3.20;66.10
73360;DHT22;63092;43.582;19.528;2023-02-10T14:14:34;3.20;66.80
73360;DHT22;63092;43.582;19.528;2023-02-10T14:19:43;3.10;67.20
73360;DHT22;63092;43.582;19.528;2023-02-10T14:24:54;2.90;67.90
73360;DHT22;63092;43.582;19.528;2023-02-10T14:27:26;2.90;68.30
73360;DHT22;63092;43.582;19.528;2023-02-10T14:32:45;2.80;67.10
73360;DHT22;63092;43.582;19.528;2023-02-10T14:35:18;2.80;68.00
73360;DHT22;63092;43.582;19.528;2023-02-10T14:37:51;2.80;68.80
73360;DHT22;63092;43.582;19.528;2023-02-10T14:40:23;2.70;68.60
73360;DHT22;63092;43.582;19.528;2023-02-10T14:42:50;2.70;68.40
73360;DHT22;63092;43.582;19.528;2023-02-10T14:45:22;2.60;68.40
73360;DHT22;63092;43.582;19.528;2023-02-10T14:47:50;2.60;69.20
73360;DHT22;63092;43.582;19.528;2023-02-10T14:50:30;2.50;70.80
73360;DHT22;63092;43.582;19.528;2023-02-10T14:52:57;2.50;70.80
73360;DHT22;63092;43.582;19.528;2023-02-10T14:55:34;2.50;71.20
73360;DHT22;63092;43.582;19.528;2023-02-10T14:58:11;2.40;71.80
73360;DHT22;63092;43.582;19.528;2023-02-10T15:00:39;2.40;72.00
73360;DHT22;63092;43.582;19.528;2023-02-10T15:03:06;2.40;72.10
73360;DHT22;63092;43.582;19.528;2023-02-10T15:05:43;2.30;72.40
73360;DHT22;63092;43.582;19.528;2023-02-10T15:08:16;2.30;73.60
73360;DHT22;63092;43.582;19.528;2023-02-10T15:10:45;2.30;74.40
73360;DHT22;63092;43.582;19.528;2023-02-10T15:13:19;2.20;74.10
73360;DHT22;63092;43.582;19.528;2023-02-10T15:15:49;2.20;73.30
73360;DHT22;63092;43.582;19.528;2023-02-10T15:18:18;2.10;73.80
73360;DHT22;63092;43.582;19.528;2023-02-10T15:21:28;2.10;74.60
73360;DHT22;63092;43.582;19.528;2023-02-10T15:23:56;2.00;74.70
73360;DHT22;63092;43.582;19.528;2023-02-10T15:26:27;2.00;74.30
73360;DHT22;63092;43.582;19.528;2023-02-10T15:29:05;2.00;75.00
73360;DHT22;63092;43.582;19.528;2023-02-10T15:31:33;2.00;75.30
73360;DHT22;63092;43.582;19.528;2023-02-10T15:34:01;1.90;75.60
73360;DHT22;63092;43.582;19.528;2023-02-10T15:36:35;1.90;76.40
73360;DHT22;63092;43.582;19.528;2023-02-10T15:39:04;2.00;75.60
73360;DHT22;63092;43.582;19.528;2023-02-10T15:41:55;2.00;77.00
73360;DHT22;63092;43.582;19.528;2023-02-10T15:44:33;2.00;76.00
73360;DHT22;63092;43.582;19.528;2023-02-10T15:49:36;2.00;77.80
73360;DHT22;63092;43.582;19.528;2023-02-10T15:52:01;2.00;78.20
73360;DHT22;63092;43.582;19.528;2023-02-10T15:54:27;2.00;78.30
73360;DHT22;63092;43.582;19.528;2023-02-10T15:57:04;1.90;76.80
73360;DHT22;63092;43.582;19.528;2023-02-10T15:59:31;1.90;76.30
73360;DHT22;63092;43.582;19.528;2023-02-10T16:01:58;1.80;76.20
73360;DHT22;63092;43.582;19.528;2023-02-10T16:04:25;1.80;80.20
73360;DHT22;63092;43.582;19.528;2023-02-10T16:06:53;1.70;82.60
73360;DHT22;63092;43.582;19.528;2023-02-10T16:09:18;1.60;83.10
73360;DHT22;63092;43.582;19.528;2023-02-10T16:11:45;1.70;82.90
73360;DHT22;63092;43.582;19.528;2023-02-10T16:14:11;1.70;82.40
73360;DHT22;63092;43.582;19.528;2023-02-10T16:16:44;1.70;82.30
73360;DHT22;63092;43.582;19.528;2023-02-10T16:19:12;1.60;82.90
73360;DHT22;63092;43.582;19.528;2023-02-10T16:21:39;1.60;83.10
73360;DHT22;63092;43.582;19.528;2023-02-10T16:24:07;1.60;84.10
73360;DHT22;63092;43.582;19.528;2023-02-10T16:26:36;1.60;83.90
73360;DHT22;63092;43.582;19.528;2023-02-10T16:29:02;1.50;83.00
73360;DHT22;63092;43.582;19.528;2023-02-10T16:31:28;1.50;82.30
73360;DHT22;63092;43.582;19.528;2023-02-10T16:33:53;1.50;82.80
73360;DHT22;63092;43.582;19.528;2023-02-10T16:36:19;1.40;82.90
73360;DHT22;63092;43.582;19.528;2023-02-10T16:38:45;1.40;83.80
73360;DHT22;63092;43.582;19.528;2023-02-10T16:41:11;1.40;83.60
73360;DHT22;63092;43.582;19.528;2023-02-10T16:43:36;1.40;82.70
73360;DHT22;63092;43.582;19.528;2023-02-10T16:46:02;1.40;83.10
73360;DHT22;63092;43.582;19.528;2023-02-10T16:48:28;1.40;82.20
73360;DHT22;63092;43.582;19.528;2023-02-10T16:50:54;1.40;81.60
73360;DHT22;63092;43.582;19.528;2023-02-10T16:53:19;1.40;81.20
73360;DHT22;63092;43.582;19.528;2023-02-10T16:55:45;1.30;81.20
73360;DHT22;63092;43.582;19.528;2023-02-10T16:58:16;1.30;82.50
73360;DHT22;63092;43.582;19.528;2023-02-10T17:00:42;1.30;82.20
73360;DHT22;63092;43.582;19.528;2023-02-10T17:03:09;1.20;82.40
73360;DHT22;63092;43.582;19.528;2023-02-10T17:05:34;1.20;82.50
73360;DHT22;63092;43.582;19.528;2023-02-10T17:08:03;1.10;83.40
73360;DHT22;63092;43.582;19.528;2023-02-10T17:10:30;1.10;83.90
73360;DHT22;63092;43.582;19.528;2023-02-10T17:12:56;1.10;83.70
73360;DHT22;63092;43.582;19.528;2023-02-10T17:15:22;1.10;84.30
73360;DHT22;63092;43.582;19.528;2023-02-10T17:17:48;1.10;84.00
73360;DHT22;63092;43.582;19.528;2023-02-10T17:20:29;1.00;82.90
73360;DHT22;63092;43.582;19.528;2023-02-10T17:22:56;1.00;83.50
73360;DHT22;63092;43.582;19.528;2023-02-10T17:25:23;1.00;83.90
73360;DHT22;63092;43.582;19.528;2023-02-10T17:27:51;0.90;84.40
73360;DHT22;63092;43.582;19.528;2023-02-10T17:30:19;0.90;84.30
73360;DHT22;63092;43.582;19.528;2023-02-10T17:32:46;0.80;83.70
73360;DHT22;63092;43.582;19.528;2023-02-10T17:35:17;0.80;84.40
73360;DHT22;63092;43.582;19.528;2023-02-10T17:37:44;0.70;84.90
73360;DHT22;63092;43.582;19.528;2023-02-10T17:40:17;0.70;85.10